sensor_id;sensor_type;location;lat;lon;timestamp;P1;durP1;ratioP1;P2;durP2;ratioP2
23181;SDS011;11759;51.282;6.642;2024-03-07T00:00:28;147.27;;;46.33;;
23181;SDS011;11759;51.282;6.642;2024-03-07T00:02:55;148.20;;;45.30;;
23181;SDS011;11759;51.282;6.642;2024-03-07T00:05:23;165.02;;;47.72;;
23181;SDS011;11759;51.282;6.642;2024-03-07T00:07:53;152.85;;;47.28;;
23181;SDS011;11759;51.282;6.642;2024-03-07T00:10:20;147.70;;;45.95;;
23181;SDS011;11759;51.282;6.642;2024-03-07T00:12:47;156.68;;;46.38;;
23181;SDS011;11759;51.282;6.642;2024-03-07T00:15:14;159.88;;;47.03;;
23181;SDS011;11759;51.282;6.642;2024-03-07T00:17:41;167.52;;;46.78;;
23181;SDS011;11759;51.282;6.642;2024-03-07T00:20:09;149.73;;;45.28;;
23181;SDS011;11759;51.282;6.642;2024-03-07T00:22:41;154.60;;;44.63;;
23181;SDS011;11759;51.282;6.642;2024-03-07T00:25:08;151.82;;;45.00;;
23181;SDS011;11759;51.282;6.642;2024-03-07T00:27:36;158.52;;;46.17;;
23181;SDS011;11759;51.282;6.642;2024-03-07T00:30:03;152.85;;;45.92;;
23181;SDS011;11759;51.282;6.642;2024-03-07T00:32:31;157.77;;;44.92;;
23181;SDS011;11759;51.282;6.642;2024-03-07T00:35:02;157.32;;;46.60;;
23181;SDS011;11759;51.282;6.642;2024-03-07T00:37:31;141.43;;;44.90;;
23181;SDS011;11759;51.282;6.642;2024-03-07T00:39:58;149.75;;;46.45;;
23181;SDS011;11759;51.282;6.642;2024-03-07T00:42:25;143.90;;;44.10;;
23181;SDS011;11759;51.282;6.642;2024-03-07T00:44:54;153.88;;;45.22;;
23181;SDS011;11759;51.282;6.642;2024-03-07T00:47:20;144.20;;;44.17;;
23181;SDS011;11759;51.282;6.642;2024-03-07T00:49:47;166.88;;;46.75;;
23181;SDS011;11759;51.282;6.642;2024-03-07T00:52:14;144.77;;;42.38;;
23181;SDS011;11759;51.282;6.642;2024-03-07T00:54:42;154.70;;;44.55;;
23181;SDS011;11759;51.282;6.642;2024-03-07T00:57:08;153.75;;;46.53;;
23181;SDS011;11759;51.282;6.642;2024-03-07T00:59:35;156.02;;;44.50;;
23181;SDS011;11759;51.282;6.642;2024-03-07T01:02:02;158.68;;;45.47;;
23181;SDS011;11759;51.282;6.642;2024-03-07T01:04:29;153.65;;;44.63;;
23181;SDS011;11759;51.282;6.642;2024-03-07T01:06:57;149.30;;;45.75;;
23181;SDS011;11759;51.282;6.642;2024-03-07T01:09:27;153.50;;;43.60;;
23181;SDS011;11759;51.282;6.642;2024-03-07T01:11:57;158.15;;;44.42;;
23181;SDS011;11759;51.282;6.642;2024-03-07T01:14:26;141.70;;;45.20;;
23181;SDS011;11759;51.282;6.642;2024-03-07T01:16:53;157.02;;;44.78;;
23181;SDS011;11759;51.282;6.642;2024-03-07T01:19:20;158.80;;;46.88;;
23181;SDS011;11759;51.282;6.642;2024-03-07T01:21:46;160.23;;;47.28;;
23181;SDS011;11759;51.282;6.642;2024-03-07T01:24:13;160.65;;;46.33;;
23181;SDS011;11759;51.282;6.642;2024-03-07T01:26:44;169.80;;;46.88;;
23181;SDS011;11759;51.282;6.642;2024-03-07T01:29:11;147.18;;;43.92;;
23181;SDS011;11759;51.282;6.642;2024-03-07T01:31:38;163.18;;;46.83;;
23181;SDS011;11759;51.282;6.642;2024-03-07T01:34:05;166.40;;;47.25;;
23181;SDS011;11759;51.282;6.642;2024-03-07T01:36:32;184.75;;;47.90;;
23181;SDS011;11759;51.282;6.642;2024-03-07T01:38:58;153.10;;;44.75;;
23181;SDS011;11759;51.282;6.642;2024-03-07T01:41:25;162.38;;;46.75;;
23181;SDS011;11759;51.282;6.642;2024-03-07T01:43:52;179.38;;;49.05;;
23181;SDS011;11759;51.282;6.642;2024-03-07T01:46:19;178.10;;;49.40;;
23181;SDS011;11759;51.282;6.642;2024-03-07T01:48:46;170.13;;;48.45;;
23181;SDS011;11759;51.282;6.642;2024-03-07T01:51:14;159.23;;;47.47;;
23181;SDS011;11759;51.282;6.642;2024-03-07T01:53:41;182.15;;;48.13;;
23181;SDS011;11759;51.282;6.642;2024-03-07T01:56:08;189.65;;;49.95;;
23181;SDS011;11759;51.282;6.642;2024-03-07T01:58:36;174.05;;;49.83;;
23181;SDS011;11759;51.282;6.642;2024-03-07T02:01:03;191.43;;;49.35;;
23181;SDS011;11759;51.282;6.642;2024-03-07T02:03:29;193.05;;;51.55;;
23181;SDS011;11759;51.282;6.642;2024-03-07T02:05:56;184.70;;;50.55;;
23181;SDS011;11759;51.282;6.642;2024-03-07T02:08:23;197.07;;;49.90;;
23181;SDS011;11759;51.282;6.642;2024-03-07T02:10:50;182.38;;;49.88;;
23181;SDS011;11759;51.282;6.642;2024-03-07T02:13:17;192.55;;;52.70;;
23181;SDS011;11759;51.282;6.642;2024-03-07T02:15:43;188.73;;;49.08;;
23181;SDS011;11759;51.282;6.642;2024-03-07T02:18:10;182.55;;;51.17;;
23181;SDS011;11759;51.282;6.642;2024-03-07T02:20:37;202.70;;;50.55;;
23181;SDS011;11759;51.282;6.642;2024-03-07T02:23:04;192.52;;;47.83;;
23181;SDS011;11759;51.282;6.642;2024-03-07T02:25:31;183.70;;;50.88;;
23181;SDS011;11759;51.282;6.642;2024-03-07T02:27:59;198.85;;;50.90;;
23181;SDS011;11759;51.282;6.642;2024-03-07T02:30:26;202.27;;;53.28;;
23181;SDS011;11759;51.282;6.642;2024-03-07T02:32:52;198.30;;;51.42;;
23181;SDS011;11759;51.282;6.642;2024-03-07T02:35:22;190.00;;;52.20;;
23181;SDS011;11759;51.282;6.642;2024-03-07T02:37:50;176.93;;;50.83;;
23181;SDS011;11759;51.282;6.642;2024-03-07T02:40:17;177.25;;;49.67;;
23181;SDS011;11759;51.282;6.642;2024-03-07T02:42:44;191.23;;;50.17;;
23181;SDS011;11759;51.282;6.642;2024-03-07T02:45:10;183.05;;;49.15;;
23181;SDS011;11759;51.282;6.642;2024-03-07T02:47:40;200.38;;;49.78;;
23181;SDS011;11759;51.282;6.642;2024-03-07T02:50:08;190.20;;;47.20;;
23181;SDS011;11759;51.282;6.642;2024-03-07T02:52:35;180.38;;;47.08;;
23181;SDS011;11759;51.282;6.642;2024-03-07T02:55:02;196.85;;;49.28;;
23181;SDS011;11759;51.282;6.642;2024-03-07T02:57:32;217.20;;;43.85;;
23181;SDS011;11759;51.282;6.642;2024-03-07T02:59:58;239.18;;;46.88;;
23181;SDS011;11759;51.282;6.642;2024-03-07T03:02:25;271.27;;;50.20;;
23181;SDS011;11759;51.282;6.642;2024-03-07T03:04:52;257.38;;;47.92;;
23181;SDS011;11759;51.282;6.642;2024-03-07T03:07:18;234.65;;;45.97;;
23181;SDS011;11759;51.282;6.642;2024-03-07T03:09:45;172.52;;;47.08;;
23181;SDS011;11759;51.282;6.642;2024-03-07T03:12:13;200.68;;;49.10;;
23181;SDS011;11759;51.282;6.642;2024-03-07T03:14:39;194.63;;;47.05;;
23181;SDS011;11759;51.282;6.642;2024-03-07T03:17:06;156.30;;;46.38;;
23181;SDS011;11759;51.282;6.642;2024-03-07T03:19:35;164.88;;;47.13;;
23181;SDS011;11759;51.282;6.642;2024-03-07T03:22:02;158.65;;;46.10;;
23181;SDS011;11759;51.282;6.642;2024-03-07T03:24:29;158.68;;;46.47;;
23181;SDS011;11759;51.282;6.642;2024-03-07T03:26:57;169.98;;;47.63;;
23181;SDS011;11759;51.282;6.642;2024-03-07T03:29:24;169.13;;;46.55;;
23181;SDS011;11759;51.282;6.642;2024-03-07T03:31:51;163.95;;;45.88;;
23181;SDS011;11759;51.282;6.642;2024-03-07T03:34:18;173.27;;;47.20;;
23181;SDS011;11759;51.282;6.642;2024-03-07T03:36:44;178.15;;;47.70;;
23181;SDS011;11759;51.282;6.642;2024-03-07T03:39:11;166.43;;;47.55;;
23181;SDS011;11759;51.282;6.642;2024-03-07T03:41:39;177.43;;;47.10;;
23181;SDS011;11759;51.282;6.642;2024-03-07T03:44:06;166.40;;;45.53;;
23181;SDS011;11759;51.282;6.642;2024-03-07T03:46:33;170.50;;;49.13;;
23181;SDS011;11759;51.282;6.642;2024-03-07T03:49:00;175.52;;;48.17;;
23181;SDS011;11759;51.282;6.642;2024-03-07T03:51:27;160.80;;;48.33;;
23181;SDS011;11759;51.282;6.642;2024-03-07T03:53:54;182.93;;;51.20;;
23181;SDS011;11759;51.282;6.642;2024-03-07T03:56:21;206.88;;;53.88;;
23181;SDS011;11759;51.282;6.642;2024-03-07T03:58:48;176.95;;;48.03;;
23181;SDS011;11759;51.282;6.642;2024-03-07T04:01:15;244.38;;;50.80;;
23181;SDS011;11759;51.282;6.642;2024-03-07T04:03:42;194.60;;;51.75;;
23181;SDS011;11759;51.282;6.642;2024-03-07T04:06:13;180.25;;;51.20;;
23181;SDS011;11759;51.282;6.642;2024-03-07T04:08:40;187.18;;;48.90;;
23181;SDS011;11759;51.282;6.642;2024-03-07T04:11:07;187.57;;;49.00;;
23181;SDS011;11759;51.282;6.642;2024-03-07T04:13:36;214.23;;;53.05;;
23181;SDS011;11759;51.282;6.642;2024-03-07T04:16:03;215.60;;;53.83;;
23181;SDS011;11759;51.282;6.642;2024-03-07T04:18:30;220.43;;;52.15;;
23181;SDS011;11759;51.282;6.642;2024-03-07T04:20:58;249.65;;;51.47;;
23181;SDS011;11759;51.282;6.642;2024-03-07T04:23:25;192.60;;;51.00;;
23181;SDS011;11759;51.282;6.642;2024-03-07T04:25:52;227.18;;;54.30;;
23181;SDS011;11759;51.282;6.642;2024-03-07T04:28:19;203.30;;;55.83;;
23181;SDS011;11759;51.282;6.642;2024-03-07T04:30:47;192.80;;;51.17;;
23181;SDS011;11759;51.282;6.642;2024-03-07T04:33:15;206.02;;;52.03;;
23181;SDS011;11759;51.282;6.642;2024-03-07T04:35:42;197.15;;;53.83;;
23181;SDS011;11759;51.282;6.642;2024-03-07T04:38:08;191.38;;;51.60;;
23181;SDS011;11759;51.282;6.642;2024-03-07T04:40:37;189.15;;;53.30;;
23181;SDS011;11759;51.282;6.642;2024-03-07T04:43:05;193.57;;;54.03;;
23181;SDS011;11759;51.282;6.642;2024-03-07T04:45:31;196.18;;;53.65;;
23181;SDS011;11759;51.282;6.642;2024-03-07T04:47:58;204.50;;;54.90;;
23181;SDS011;11759;51.282;6.642;2024-03-07T04:50:25;209.98;;;56.28;;
23181;SDS011;11759;51.282;6.642;2024-03-07T04:52:53;199.40;;;55.50;;
23181;SDS011;11759;51.282;6.642;2024-03-07T04:55:19;199.82;;;55.25;;
23181;SDS011;11759;51.282;6.642;2024-03-07T04:57:46;212.82;;;53.63;;
23181;SDS011;11759;51.282;6.642;2024-03-07T05:00:14;206.80;;;53.83;;
23181;SDS011;11759;51.282;6.642;2024-03-07T05:02:44;199.48;;;54.13;;
23181;SDS011;11759;51.282;6.642;2024-03-07T05:05:12;189.93;;;54.08;;
23181;SDS011;11759;51.282;6.642;2024-03-07T05:07:40;186.02;;;51.67;;
23181;SDS011;11759;51.282;6.642;2024-03-07T05:10:07;193.60;;;52.80;;
23181;SDS011;11759;51.282;6.642;2024-03-07T05:12:34;191.45;;;53.20;;
23181;SDS011;11759;51.282;6.642;2024-03-07T05:15:01;211.18;;;54.40;;
23181;SDS011;11759;51.282;6.642;2024-03-07T05:17:30;192.93;;;53.90;;
23181;SDS011;11759;51.282;6.642;2024-03-07T05:20:01;199.00;;;54.13;;
23181;SDS011;11759;51.282;6.642;2024-03-07T05:22:28;188.88;;;52.47;;
23181;SDS011;11759;51.282;6.642;2024-03-07T05:24:56;190.48;;;52.22;;
23181;SDS011;11759;51.282;6.642;2024-03-07T05:27:24;200.68;;;56.50;;
23181;SDS011;11759;51.282;6.642;2024-03-07T05:29:51;197.50;;;55.30;;
23181;SDS011;11759;51.282;6.642;2024-03-07T05:32:24;185.63;;;54.97;;
23181;SDS011;11759;51.282;6.642;2024-03-07T05:34:52;195.65;;;54.97;;
23181;SDS011;11759;51.282;6.642;2024-03-07T05:37:20;186.38;;;53.35;;
23181;SDS011;11759;51.282;6.642;2024-03-07T05:39:50;181.43;;;52.40;;
23181;SDS011;11759;51.282;6.642;2024-03-07T05:42:17;162.00;;;49.30;;
23181;SDS011;11759;51.282;6.642;2024-03-07T05:44:44;178.93;;;51.45;;
23181;SDS011;11759;51.282;6.642;2024-03-07T05:47:11;171.63;;;51.05;;
23181;SDS011;11759;51.282;6.642;2024-03-07T05:49:40;171.18;;;52.38;;
23181;SDS011;11759;51.282;6.642;2024-03-07T05:52:07;185.77;;;53.28;;
23181;SDS011;11759;51.282;6.642;2024-03-07T05:54:34;170.25;;;51.80;;
23181;SDS011;11759;51.282;6.642;2024-03-07T05:57:01;178.35;;;52.33;;
23181;SDS011;11759;51.282;6.642;2024-03-07T05:59:28;185.55;;;53.78;;
23181;SDS011;11759;51.282;6.642;2024-03-07T06:01:55;186.73;;;52.90;;
23181;SDS011;11759;51.282;6.642;2024-03-07T06:04:22;188.85;;;52.42;;
23181;SDS011;11759;51.282;6.642;2024-03-07T06:06:49;186.52;;;52.00;;
23181;SDS011;11759;51.282;6.642;2024-03-07T06:09:15;171.68;;;53.53;;
23181;SDS011;11759;51.282;6.642;2024-03-07T06:11:48;188.55;;;51.92;;
23181;SDS011;11759;51.282;6.642;2024-03-07T06:14:15;176.07;;;51.63;;
23181;SDS011;11759;51.282;6.642;2024-03-07T06:16:42;184.60;;;54.22;;
23181;SDS011;11759;51.282;6.642;2024-03-07T06:19:09;175.85;;;50.17;;
23181;SDS011;11759;51.282;6.642;2024-03-07T06:21:38;187.95;;;52.00;;
23181;SDS011;11759;51.282;6.642;2024-03-07T06:24:05;170.80;;;51.33;;
23181;SDS011;11759;51.282;6.642;2024-03-07T06:26:35;174.73;;;50.28;;
23181;SDS011;11759;51.282;6.642;2024-03-07T06:29:22;166.65;;;51.47;;
23181;SDS011;11759;51.282;6.642;2024-03-07T06:31:49;182.38;;;51.50;;
23181;SDS011;11759;51.282;6.642;2024-03-07T06:34:16;180.88;;;52.35;;
23181;SDS011;11759;51.282;6.642;2024-03-07T06:36:44;180.20;;;53.55;;
23181;SDS011;11759;51.282;6.642;2024-03-07T06:39:11;182.45;;;50.60;;
23181;SDS011;11759;51.282;6.642;2024-03-07T06:41:39;187.10;;;54.20;;
23181;SDS011;11759;51.282;6.642;2024-03-07T06:44:06;178.52;;;52.90;;
23181;SDS011;11759;51.282;6.642;2024-03-07T06:46:34;173.25;;;52.55;;
23181;SDS011;11759;51.282;6.642;2024-03-07T06:49:01;187.35;;;52.63;;
23181;SDS011;11759;51.282;6.642;2024-03-07T06:51:27;193.85;;;53.28;;
23181;SDS011;11759;51.282;6.642;2024-03-07T06:53:54;186.82;;;50.60;;
23181;SDS011;11759;51.282;6.642;2024-03-07T06:56:22;167.65;;;50.92;;
23181;SDS011;11759;51.282;6.642;2024-03-07T06:58:51;181.38;;;51.55;;
23181;SDS011;11759;51.282;6.642;2024-03-07T07:01:18;175.60;;;48.72;;
23181;SDS011;11759;51.282;6.642;2024-03-07T07:03:46;189.82;;;54.03;;
23181;SDS011;11759;51.282;6.642;2024-03-07T07:06:14;172.45;;;48.70;;
23181;SDS011;11759;51.282;6.642;2024-03-07T07:08:41;192.75;;;51.63;;
23181;SDS011;11759;51.282;6.642;2024-03-07T07:11:08;162.85;;;52.53;;
23181;SDS011;11759;51.282;6.642;2024-03-07T07:13:35;153.68;;;50.60;;
23181;SDS011;11759;51.282;6.642;2024-03-07T07:16:03;164.57;;;49.47;;
23181;SDS011;11759;51.282;6.642;2024-03-07T07:18:30;165.73;;;54.10;;
23181;SDS011;11759;51.282;6.642;2024-03-07T07:20:57;156.63;;;49.45;;
23181;SDS011;11759;51.282;6.642;2024-03-07T07:23:24;158.95;;;49.53;;
23181;SDS011;11759;51.282;6.642;2024-03-07T07:25:53;162.13;;;49.78;;
23181;SDS011;11759;51.282;6.642;2024-03-07T07:28:19;153.70;;;50.25;;
23181;SDS011;11759;51.282;6.642;2024-03-07T07:30:46;142.65;;;47.40;;
23181;SDS011;11759;51.282;6.642;2024-03-07T07:33:13;146.68;;;49.40;;
23181;SDS011;11759;51.282;6.642;2024-03-07T07:35:40;142.68;;;47.00;;
23181;SDS011;11759;51.282;6.642;2024-03-07T07:38:07;130.77;;;45.55;;
23181;SDS011;11759;51.282;6.642;2024-03-07T07:40:37;127.50;;;46.40;;
23181;SDS011;11759;51.282;6.642;2024-03-07T07:43:03;133.35;;;48.35;;
23181;SDS011;11759;51.282;6.642;2024-03-07T07:45:30;137.88;;;48.80;;
23181;SDS011;11759;51.282;6.642;2024-03-07T07:47:59;129.77;;;45.47;;
23181;SDS011;11759;51.282;6.642;2024-03-07T07:50:25;110.32;;;42.95;;
23181;SDS011;11759;51.282;6.642;2024-03-07T07:52:53;113.82;;;44.53;;
23181;SDS011;11759;51.282;6.642;2024-03-07T07:55:21;104.70;;;40.22;;
23181;SDS011;11759;51.282;6.642;2024-03-07T07:57:58;100.82;;;40.60;;
23181;SDS011;11759;51.282;6.642;2024-03-07T08:00:26;93.35;;;36.47;;
23181;SDS011;11759;51.282;6.642;2024-03-07T08:03:03;90.47;;;38.83;;
23181;SDS011;11759;51.282;6.642;2024-03-07T08:05:33;86.15;;;34.35;;
23181;SDS011;11759;51.282;6.642;2024-03-07T08:08:01;83.47;;;35.03;;
23181;SDS011;11759;51.282;6.642;2024-03-07T08:10:33;82.13;;;35.75;;
23181;SDS011;11759;51.282;6.642;2024-03-07T08:13:02;80.82;;;33.35;;
23181;SDS011;11759;51.282;6.642;2024-03-07T08:15:30;77.82;;;33.90;;
23181;SDS011;11759;51.282;6.642;2024-03-07T08:17:57;67.45;;;32.17;;
23181;SDS011;11759;51.282;6.642;2024-03-07T08:20:26;73.05;;;32.05;;
23181;SDS011;11759;51.282;6.642;2024-03-07T08:22:54;65.93;;;30.85;;
23181;SDS011;11759;51.282;6.642;2024-03-07T08:25:22;71.38;;;31.83;;
23181;SDS011;11759;51.282;6.642;2024-03-07T08:27:51;69.13;;;29.42;;
23181;SDS011;11759;51.282;6.642;2024-03-07T08:30:19;66.35;;;29.80;;
23181;SDS011;11759;51.282;6.642;2024-03-07T08:32:49;64.05;;;30.80;;
23181;SDS011;11759;51.282;6.642;2024-03-07T08:35:18;63.58;;;29.15;;
23181;SDS011;11759;51.282;6.642;2024-03-07T08:37:45;60.05;;;27.73;;
23181;SDS011;11759;51.282;6.642;2024-03-07T08:40:15;56.47;;;26.25;;
23181;SDS011;11759;51.282;6.642;2024-03-07T08:42:53;55.63;;;25.92;;
23181;SDS011;11759;51.282;6.642;2024-03-07T08:45:27;53.00;;;25.33;;
23181;SDS011;11759;51.282;6.642;2024-03-07T08:47:55;45.88;;;20.75;;
23181;SDS011;11759;51.282;6.642;2024-03-07T08:50:25;47.95;;;24.45;;
23181;SDS011;11759;51.282;6.642;2024-03-07T08:52:54;48.38;;;23.48;;
23181;SDS011;11759;51.282;6.642;2024-03-07T08:55:24;45.55;;;21.75;;
23181;SDS011;11759;51.282;6.642;2024-03-07T08:57:52;46.33;;;22.98;;
23181;SDS011;11759;51.282;6.642;2024-03-07T09:00:20;46.25;;;21.20;;
23181;SDS011;11759;51.282;6.642;2024-03-07T09:02:56;40.47;;;20.50;;
23181;SDS011;11759;51.282;6.642;2024-03-07T09:07:55;37.88;;;20.15;;
23181;SDS011;11759;51.282;6.642;2024-03-07T09:10:22;44.35;;;20.75;;
23181;SDS011;11759;51.282;6.642;2024-03-07T09:12:50;48.17;;;20.02;;
23181;SDS011;11759;51.282;6.642;2024-03-07T09:15:18;40.08;;;18.98;;
23181;SDS011;11759;51.282;6.642;2024-03-07T09:17:49;39.58;;;19.58;;
23181;SDS011;11759;51.282;6.642;2024-03-07T09:20:16;37.47;;;19.83;;
23181;SDS011;11759;51.282;6.642;2024-03-07T09:22:46;36.95;;;18.13;;
23181;SDS011;11759;51.282;6.642;2024-03-07T09:25:17;37.53;;;18.73;;
23181;SDS011;11759;51.282;6.642;2024-03-07T09:27:46;37.03;;;18.45;;
23181;SDS011;11759;51.282;6.642;2024-03-07T09:30:12;40.28;;;17.95;;
23181;SDS011;11759;51.282;6.642;2024-03-07T09:32:41;37.22;;;18.25;;
23181;SDS011;11759;51.282;6.642;2024-03-07T09:35:08;37.60;;;18.50;;
23181;SDS011;11759;51.282;6.642;2024-03-07T09:37:41;32.25;;;17.73;;
23181;SDS011;11759;51.282;6.642;2024-03-07T09:40:09;33.90;;;17.43;;
23181;SDS011;11759;51.282;6.642;2024-03-07T09:42:41;34.15;;;17.65;;
23181;SDS011;11759;51.282;6.642;2024-03-07T09:45:16;34.53;;;17.05;;
23181;SDS011;11759;51.282;6.642;2024-03-07T09:47:48;32.53;;;17.77;;
23181;SDS011;11759;51.282;6.642;2024-03-07T09:50:17;35.38;;;17.77;;
23181;SDS011;11759;51.282;6.642;2024-03-07T09:52:49;37.22;;;16.83;;
23181;SDS011;11759;51.282;6.642;2024-03-07T09:55:17;34.47;;;17.88;;
23181;SDS011;11759;51.282;6.642;2024-03-07T09:57:46;34.42;;;17.73;;
23181;SDS011;11759;51.282;6.642;2024-03-07T10:00:13;32.45;;;16.27;;
23181;SDS011;11759;51.282;6.642;2024-03-07T10:02:53;34.58;;;16.83;;
23181;SDS011;11759;51.282;6.642;2024-03-07T10:05:24;36.85;;;17.38;;
23181;SDS011;11759;51.282;6.642;2024-03-07T10:07:56;31.55;;;16.40;;
23181;SDS011;11759;51.282;6.642;2024-03-07T10:10:23;40.03;;;17.17;;
23181;SDS011;11759;51.282;6.642;2024-03-07T10:12:50;33.92;;;16.00;;
23181;SDS011;11759;51.282;6.642;2024-03-07T10:15:19;32.13;;;15.27;;
23181;SDS011;11759;51.282;6.642;2024-03-07T10:17:46;30.42;;;15.20;;
23181;SDS011;11759;51.282;6.642;2024-03-07T10:20:14;31.70;;;14.18;;
23181;SDS011;11759;51.282;6.642;2024-03-07T10:22:46;35.28;;;16.25;;
23181;SDS011;11759;51.282;6.642;2024-03-07T10:25:16;38.10;;;16.40;;
23181;SDS011;11759;51.282;6.642;2024-03-07T10:27:55;37.35;;;15.35;;
23181;SDS011;11759;51.282;6.642;2024-03-07T10:30:23;35.72;;;16.45;;
23181;SDS011;11759;51.282;6.642;2024-03-07T10:32:51;37.38;;;16.50;;
23181;SDS011;11759;51.282;6.642;2024-03-07T10:35:21;33.13;;;16.13;;
23181;SDS011;11759;51.282;6.642;2024-03-07T10:37:54;32.95;;;16.02;;
23181;SDS011;11759;51.282;6.642;2024-03-07T10:40:22;36.88;;;16.10;;
23181;SDS011;11759;51.282;6.642;2024-03-07T10:42:51;37.28;;;16.25;;
23181;SDS011;11759;51.282;6.642;2024-03-07T10:45:22;37.88;;;15.77;;
23181;SDS011;11759;51.282;6.642;2024-03-07T10:47:54;35.75;;;15.48;;
23181;SDS011;11759;51.282;6.642;2024-03-07T11:00:56;32.35;;;15.60;;
23181;SDS011;11759;51.282;6.642;2024-03-07T11:03:23;35.17;;;15.65;;
23181;SDS011;11759;51.282;6.642;2024-03-07T11:05:50;36.85;;;16.58;;
23181;SDS011;11759;51.282;6.642;2024-03-07T11:08:17;36.42;;;15.23;;
23181;SDS011;11759;51.282;6.642;2024-03-07T11:10:44;37.53;;;16.42;;
23181;SDS011;11759;51.282;6.642;2024-03-07T11:13:13;34.42;;;15.60;;
23181;SDS011;11759;51.282;6.642;2024-03-07T11:15:42;31.58;;;15.07;;
23181;SDS011;11759;51.282;6.642;2024-03-07T11:18:09;32.63;;;16.05;;
23181;SDS011;11759;51.282;6.642;2024-03-07T11:20:39;30.35;;;15.38;;
23181;SDS011;11759;51.282;6.642;2024-03-07T11:26:06;29.50;;;14.50;;
23181;SDS011;11759;51.282;6.642;2024-03-07T11:28:38;30.10;;;14.65;;
23181;SDS011;11759;51.282;6.642;2024-03-07T11:31:14;29.17;;;14.43;;
23181;SDS011;11759;51.282;6.642;2024-03-07T11:36:47;33.83;;;15.02;;
23181;SDS011;11759;51.282;6.642;2024-03-07T11:42:19;35.55;;;15.60;;
23181;SDS011;11759;51.282;6.642;2024-03-07T11:44:48;35.85;;;16.48;;
23181;SDS011;11759;51.282;6.642;2024-03-07T11:47:15;34.25;;;16.45;;
23181;SDS011;11759;51.282;6.642;2024-03-07T11:49:44;30.52;;;15.75;;
23181;SDS011;11759;51.282;6.642;2024-03-07T11:52:15;34.17;;;15.50;;
23181;SDS011;11759;51.282;6.642;2024-03-07T11:54:43;34.08;;;16.55;;
23181;SDS011;11759;51.282;6.642;2024-03-07T11:57:16;28.38;;;14.82;;
23181;SDS011;11759;51.282;6.642;2024-03-07T11:59:46;29.83;;;15.00;;
23181;SDS011;11759;51.282;6.642;2024-03-07T12:02:19;32.35;;;15.65;;
23181;SDS011;11759;51.282;6.642;2024-03-07T12:04:49;36.53;;;15.90;;
23181;SDS011;11759;51.282;6.642;2024-03-07T12:07:16;32.75;;;15.05;;
23181;SDS011;11759;51.282;6.642;2024-03-07T12:09:49;34.55;;;15.82;;
23181;SDS011;11759;51.282;6.642;2024-03-07T12:12:22;39.10;;;16.50;;
23181;SDS011;11759;51.282;6.642;2024-03-07T12:14:51;31.25;;;15.40;;
23181;SDS011;11759;51.282;6.642;2024-03-07T12:17:21;37.72;;;16.25;;
23181;SDS011;11759;51.282;6.642;2024-03-07T12:19:49;31.45;;;15.23;;
23181;SDS011;11759;51.282;6.642;2024-03-07T12:22:20;31.13;;;14.88;;
23181;SDS011;11759;51.282;6.642;2024-03-07T12:25:01;32.67;;;15.52;;
23181;SDS011;11759;51.282;6.642;2024-03-07T12:27:34;34.38;;;15.10;;
23181;SDS011;11759;51.282;6.642;2024-03-07T12:30:01;34.08;;;14.75;;
23181;SDS011;11759;51.282;6.642;2024-03-07T12:32:34;32.40;;;14.45;;
23181;SDS011;11759;51.282;6.642;2024-03-07T12:35:04;32.88;;;15.27;;
23181;SDS011;11759;51.282;6.642;2024-03-07T12:37:34;32.65;;;15.25;;
23181;SDS011;11759;51.282;6.642;2024-03-07T12:40:10;37.10;;;14.98;;
23181;SDS011;11759;51.282;6.642;2024-03-07T12:42:45;35.70;;;15.25;;
23181;SDS011;11759;51.282;6.642;2024-03-07T12:45:19;33.05;;;15.38;;
23181;SDS011;11759;51.282;6.642;2024-03-07T12:47:46;30.67;;;15.45;;
23181;SDS011;11759;51.282;6.642;2024-03-07T12:50:21;34.45;;;14.90;;
23181;SDS011;11759;51.282;6.642;2024-03-07T12:52:48;32.58;;;15.23;;
23181;SDS011;11759;51.282;6.642;2024-03-07T12:55:18;36.58;;;15.85;;
23181;SDS011;11759;51.282;6.642;2024-03-07T12:57:45;32.20;;;15.38;;
23181;SDS011;11759;51.282;6.642;2024-03-07T13:00:11;36.38;;;15.93;;
23181;SDS011;11759;51.282;6.642;2024-03-07T13:02:49;32.47;;;15.32;;
23181;SDS011;11759;51.282;6.642;2024-03-07T13:05:16;37.40;;;14.43;;
23181;SDS011;11759;51.282;6.642;2024-03-07T13:07:48;40.35;;;16.90;;
23181;SDS011;11759;51.282;6.642;2024-03-07T13:10:15;36.17;;;17.05;;
23181;SDS011;11759;51.282;6.642;2024-03-07T13:12:42;32.22;;;16.38;;
23181;SDS011;11759;51.282;6.642;2024-03-07T13:15:12;41.65;;;19.38;;
23181;SDS011;11759;51.282;6.642;2024-03-07T13:17:39;37.17;;;17.30;;
23181;SDS011;11759;51.282;6.642;2024-03-07T13:20:08;37.70;;;18.00;;
23181;SDS011;11759;51.282;6.642;2024-03-07T13:22:41;33.00;;;17.23;;
23181;SDS011;11759;51.282;6.642;2024-03-07T13:25:18;34.65;;;16.80;;
23181;SDS011;11759;51.282;6.642;2024-03-07T13:27:51;39.33;;;17.85;;
23181;SDS011;11759;51.282;6.642;2024-03-07T13:30:22;33.08;;;16.42;;
23181;SDS011;11759;51.282;6.642;2024-03-07T13:32:54;30.65;;;15.93;;
23181;SDS011;11759;51.282;6.642;2024-03-07T13:35:25;37.25;;;18.20;;
23181;SDS011;11759;51.282;6.642;2024-03-07T13:37:52;43.25;;;18.70;;
23181;SDS011;11759;51.282;6.642;2024-03-07T13:40:23;40.50;;;18.45;;
23181;SDS011;11759;51.282;6.642;2024-03-07T13:42:57;42.03;;;18.90;;
23181;SDS011;11759;51.282;6.642;2024-03-07T13:45:26;35.40;;;17.80;;
23181;SDS011;11759;51.282;6.642;2024-03-07T13:48:06;35.55;;;16.85;;
23181;SDS011;11759;51.282;6.642;2024-03-07T13:50:34;34.55;;;17.65;;
23181;SDS011;11759;51.282;6.642;2024-03-07T13:53:21;42.45;;;18.77;;
23181;SDS011;11759;51.282;6.642;2024-03-07T14:06:48;32.08;;;16.20;;
23181;SDS011;11759;51.282;6.642;2024-03-07T14:23:44;26.15;;;14.88;;
23181;SDS011;11759;51.282;6.642;2024-03-07T14:26:39;28.90;;;14.95;;
23181;SDS011;11759;51.282;6.642;2024-03-07T14:29:16;34.35;;;16.40;;
23181;SDS011;11759;51.282;6.642;2024-03-07T14:31:45;36.88;;;17.02;;
23181;SDS011;11759;51.282;6.642;2024-03-07T14:34:23;31.27;;;17.10;;
23181;SDS011;11759;51.282;6.642;2024-03-07T14:37:08;30.40;;;16.52;;
23181;SDS011;11759;51.282;6.642;2024-03-07T14:39:37;31.55;;;15.40;;
23181;SDS011;11759;51.282;6.642;2024-03-07T14:42:06;31.35;;;15.80;;
23181;SDS011;11759;51.282;6.642;2024-03-07T14:44:36;30.88;;;15.05;;
23181;SDS011;11759;51.282;6.642;2024-03-07T14:47:05;26.83;;;13.38;;
23181;SDS011;11759;51.282;6.642;2024-03-07T14:49:33;32.13;;;15.10;;
23181;SDS011;11759;51.282;6.642;2024-03-07T14:52:00;34.30;;;14.02;;
23181;SDS011;11759;51.282;6.642;2024-03-07T14:54:29;29.77;;;14.05;;
23181;SDS011;11759;51.282;6.642;2024-03-07T14:56:56;28.02;;;13.95;;
23181;SDS011;11759;51.282;6.642;2024-03-07T14:59:23;26.50;;;12.90;;
23181;SDS011;11759;51.282;6.642;2024-03-07T15:01:50;24.02;;;11.43;;
23181;SDS011;11759;51.282;6.642;2024-03-07T15:04:17;19.10;;;10.50;;
23181;SDS011;11759;51.282;6.642;2024-03-07T15:06:44;19.27;;;9.00;;
23181;SDS011;11759;51.282;6.642;2024-03-07T15:09:12;16.75;;;8.50;;